createdAt,value
2022-08-17T00:02:26.614Z,12.13
2022-08-17T00:04:55.301Z,9.40
2022-08-17T00:07:23.148Z,10.15
2022-08-17T00:09:50.541Z,13.35
2022-08-17T00:12:41.605Z,12.77
2022-08-17T00:15:10.682Z,13.02
2022-08-17T00:17:38.421Z,9.52
2022-08-17T00:20:06.522Z,9.93
2022-08-17T00:22:36.312Z,9.10
2022-08-17T00:25:07.303Z,11.98
2022-08-17T00:27:35.578Z,15.40
2022-08-17T00:30:05.186Z,9.50
2022-08-17T00:33:23.009Z,10.25
2022-08-17T00:35:33.328Z,8.77
2022-08-17T00:38:00.664Z,11.63
2022-08-17T00:40:44.548Z,7.22
2022-08-17T00:43:30.479Z,13.15
2022-08-17T00:45:58.461Z,9.63
2022-08-17T00:48:29.945Z,7.97
2022-08-17T00:51:16.561Z,9.98
2022-08-17T00:53:48.044Z,11.25
2022-08-17T00:56:19.402Z,16.63
2022-08-17T00:58:46.852Z,12.25
2022-08-17T01:01:21.179Z,10.52
2022-08-17T01:03:50.616Z,14.45
2022-08-17T01:06:17.931Z,11.07
2022-08-17T01:08:45.404Z,9.70
2022-08-17T01:11:12.989Z,11.55
2022-08-17T01:13:42.229Z,12.73
2022-08-17T01:16:26.010Z,17.95
2022-08-17T01:18:55.146Z,9.10
2022-08-17T01:21:44.077Z,12.45
2022-08-17T01:24:11.325Z,9.95
2022-08-17T01:26:39.370Z,14.23
2022-08-17T01:29:06.743Z,13.20
2022-08-17T01:31:40.106Z,9.50
2022-08-17T01:34:09.596Z,9.68
2022-08-17T01:36:37.957Z,10.05
2022-08-17T01:39:06.299Z,16.35
2022-08-17T01:41:34.468Z,9.45
2022-08-17T01:44:02.929Z,9.60
2022-08-17T01:46:33.483Z,10.27
2022-08-17T01:49:01.235Z,12.43
2022-08-17T01:51:33.128Z,10.45
2022-08-17T01:54:03.474Z,11.18
2022-08-17T01:56:31.006Z,11.30
2022-08-17T01:58:58.510Z,11.98
2022-08-17T02:01:27.635Z,11.10
2022-08-17T02:04:00.977Z,10.27
2022-08-17T02:06:31.387Z,11.98
2022-08-17T02:09:02.231Z,9.15
2022-08-17T02:11:33.287Z,16.08
2022-08-17T02:14:03.334Z,13.70
2022-08-17T02:16:37.110Z,12.90
2022-08-17T02:19:07.031Z,11.35
2022-08-17T02:21:36.277Z,15.65
2022-08-17T02:24:04.509Z,13.23
2022-08-17T02:26:32.751Z,16.20
2022-08-17T02:29:00.154Z,14.18
2022-08-17T02:31:27.394Z,11.77
2022-08-17T02:34:00.243Z,10.45
2022-08-17T02:36:33.272Z,15.18
2022-08-17T02:39:10.802Z,11.73
2022-08-17T02:41:38.446Z,13.60
2022-08-17T02:44:06.258Z,12.75
2022-08-17T02:46:33.644Z,16.58
2022-08-17T02:49:04.384Z,12.63
2022-08-17T02:51:31.740Z,16.38
2022-08-17T02:54:02.210Z,12.18
2022-08-17T02:56:46.315Z,15.55
2022-08-17T02:59:14.680Z,15.80
2022-08-17T03:01:42.163Z,12.82
2022-08-17T03:04:09.620Z,11.65
2022-08-17T03:06:37.926Z,10.63
2022-08-17T03:09:05.354Z,14.38
2022-08-17T03:11:33.191Z,11.05
2022-08-17T03:14:00.511Z,11.63
2022-08-17T03:16:27.809Z,11.27
2022-08-17T03:18:55.169Z,14.05
2022-08-17T03:21:22.483Z,13.88
2022-08-17T03:23:49.861Z,16.73
2022-08-17T03:26:22.388Z,12.20
2022-08-17T03:28:49.713Z,19.50
2022-08-17T03:31:18.459Z,17.10
2022-08-17T03:33:45.777Z,15.95
2022-08-17T03:36:13.225Z,16.30
2022-08-17T03:38:40.484Z,12.02
2022-08-17T03:41:08.911Z,17.00
2022-08-17T03:43:36.186Z,14.27
2022-08-17T03:46:28.178Z,19.23
2022-08-17T03:49:26.877Z,17.00
2022-08-17T03:54:59.040Z,16.17
2022-08-17T03:57:26.346Z,12.95
2022-08-17T03:59:54.561Z,11.95
2022-08-17T04:02:24.922Z,14.18
2022-08-17T04:04:52.483Z,19.43
2022-08-17T04:07:20.870Z,14.02
2022-08-17T04:09:48.225Z,16.40
2022-08-17T04:12:21.515Z,16.85
2022-08-17T04:14:53.365Z,14.13
2022-08-17T04:17:23.252Z,18.65
2022-08-17T04:19:50.599Z,18.20
2022-08-17T04:22:31.183Z,10.77
2022-08-17T04:25:21.932Z,13.98
2022-08-17T04:27:49.232Z,19.95
2022-08-17T04:30:17.066Z,15.02
2022-08-17T04:33:12.552Z,19.75
2022-08-17T04:35:42.089Z,20.65
2022-08-17T04:38:10.882Z,21.67
2022-08-17T04:40:56.770Z,19.35
2022-08-17T04:43:24.747Z,18.30
2022-08-17T04:45:55.239Z,17.60
2022-08-17T04:48:29.782Z,16.80
2022-08-17T04:51:16.264Z,17.85
2022-08-17T04:53:44.888Z,21.80
2022-08-17T04:56:16.908Z,21.52
2022-08-17T04:58:48.507Z,20.13
2022-08-17T05:01:23.172Z,17.05
2022-08-17T05:03:53.271Z,17.42
2022-08-17T05:06:20.819Z,15.98
2022-08-17T05:08:48.198Z,15.07
2022-08-17T05:11:15.874Z,20.58
2022-08-17T05:13:43.491Z,23.65
2022-08-17T05:16:11.002Z,17.33
2022-08-17T05:18:39.147Z,18.25
2022-08-17T05:21:06.902Z,19.27
2022-08-17T05:23:42.020Z,20.67
2022-08-17T05:26:26.319Z,18.63
2022-08-17T05:28:58.504Z,18.10
2022-08-17T05:31:27.645Z,21.33
2022-08-17T05:33:55.077Z,18.10
2022-08-17T05:36:42.199Z,22.40
2022-08-17T05:39:16.368Z,25.17
2022-08-17T05:41:46.687Z,32.65
2022-08-17T05:44:14.466Z,28.60
2022-08-17T05:46:42.590Z,29.17
2022-08-17T05:49:19.043Z,31.10
2022-08-17T05:52:08.215Z,34.38
2022-08-17T05:54:49.238Z,33.45
2022-08-17T05:57:34.042Z,34.28
2022-08-17T06:00:05.612Z,31.23
2022-08-17T06:02:57.589Z,22.70
2022-08-17T06:05:41.974Z,36.17
2022-08-17T06:08:27.066Z,34.90
2022-08-17T06:11:00.648Z,30.08
2022-08-17T06:13:44.903Z,37.47
2022-08-17T06:16:28.268Z,27.98
2022-08-17T06:19:24.543Z,22.85
2022-08-17T06:21:53.534Z,27.52
2022-08-17T06:24:30.048Z,28.52
2022-08-17T06:26:59.702Z,27.20
2022-08-17T06:29:39.223Z,27.77
2022-08-17T06:32:08.574Z,22.27
2022-08-17T06:34:37.496Z,28.60
2022-08-17T06:37:19.097Z,28.45
2022-08-17T06:39:55.495Z,26.50
2022-08-17T06:42:58.832Z,21.30
2022-08-17T06:45:41.853Z,20.02
2022-08-17T06:48:25.398Z,26.35
2022-08-17T06:50:55.123Z,17.23
2022-08-17T06:53:45.717Z,21.20
2022-08-17T06:56:22.051Z,28.15
2022-08-17T06:58:49.993Z,20.67
2022-08-17T07:01:21.206Z,18.92
2022-08-17T07:03:55.957Z,14.88
2022-08-17T07:06:38.099Z,23.10
2022-08-17T07:09:16.473Z,21.35
2022-08-17T07:11:55.385Z,19.02
2022-08-17T07:14:36.588Z,20.45
2022-08-17T07:17:08.170Z,22.95
2022-08-17T07:19:39.767Z,23.48
2022-08-17T07:22:57.590Z,22.73
2022-08-17T07:25:22.606Z,20.40
2022-08-17T07:27:52.876Z,15.73
2022-08-17T07:30:21.402Z,20.67
2022-08-17T07:32:59.702Z,18.15
2022-08-17T07:35:37.841Z,18.42
2022-08-17T07:38:25.221Z,17.60
2022-08-17T07:41:03.489Z,17.45
2022-08-17T07:43:41.996Z,18.00
2022-08-17T07:47:00.371Z,19.63
2022-08-17T07:49:39.367Z,19.60
2022-08-17T07:52:51.910Z,16.05
2022-08-17T07:55:31.901Z,20.73
2022-08-17T07:58:00.130Z,18.05
2022-08-17T08:00:32.079Z,23.85
2022-08-17T08:03:23.739Z,21.92
2022-08-17T08:05:56.449Z,19.08
2022-08-17T08:08:34.083Z,15.07
2022-08-17T08:11:04.325Z,23.73
2022-08-17T08:13:32.409Z,17.67
2022-08-17T08:16:27.139Z,15.15
2022-08-17T08:18:59.432Z,22.65
2022-08-17T08:21:37.225Z,17.15
2022-08-17T08:24:13.085Z,17.23
2022-08-17T08:26:56.921Z,18.38
2022-08-17T08:30:06.289Z,17.98
2022-08-17T08:32:46.544Z,22.30
2022-08-17T08:35:37.006Z,17.35
2022-08-17T08:38:29.320Z,19.83
2022-08-17T08:41:08.675Z,20.67
2022-08-17T08:44:14.637Z,19.48
2022-08-17T08:46:48.312Z,15.48
2022-08-17T08:49:18.307Z,16.88
2022-08-17T08:51:48.646Z,18.00
2022-08-17T08:54:44.414Z,19.77
2022-08-17T08:57:34.311Z,21.50
2022-08-17T09:00:10.314Z,17.37
2022-08-17T09:02:43.311Z,23.80
2022-08-17T09:05:26.192Z,17.08
2022-08-17T09:08:24.599Z,19.73
2022-08-17T09:11:18.905Z,18.13
2022-08-17T09:14:21.769Z,15.10
2022-08-17T09:17:13.831Z,17.23
2022-08-17T09:19:54.416Z,16.52
2022-08-17T09:22:30.562Z,22.92
2022-08-17T09:25:12.261Z,12.63
2022-08-17T09:28:03.756Z,16.67
2022-08-17T09:30:45.537Z,12.75
2022-08-17T09:33:15.198Z,19.20
2022-08-17T09:35:51.249Z,12.55
2022-08-17T09:38:31.750Z,18.52
2022-08-17T09:41:26.615Z,17.13
2022-08-17T09:44:23.332Z,11.27
2022-08-17T09:47:01.120Z,19.00
2022-08-17T09:49:31.620Z,16.17
2022-08-17T09:54:39.495Z,15.93
2022-08-17T09:57:39.976Z,13.20
2022-08-17T10:00:13.308Z,16.40
2022-08-17T10:02:53.641Z,15.80
2022-08-17T10:05:37.759Z,13.38
2022-08-17T10:08:15.461Z,15.15
2022-08-17T10:10:56.454Z,14.23
2022-08-17T10:13:53.072Z,14.45
2022-08-17T10:16:38.857Z,16.27
2022-08-17T10:19:34.318Z,12.23
2022-08-17T10:22:34.508Z,11.43
2022-08-17T10:25:48.653Z,11.23
2022-08-17T10:28:20.998Z,12.38
2022-08-17T10:31:10.403Z,8.85
2022-08-17T10:34:20.620Z,6.78
2022-08-17T10:36:48.420Z,8.55
2022-08-17T10:39:22.798Z,9.68
2022-08-17T10:41:52.693Z,7.28
2022-08-17T10:44:37.347Z,7.28
2022-08-17T10:47:13.109Z,6.43
2022-08-17T10:49:47.624Z,7.70
2022-08-17T10:52:26.199Z,10.18
2022-08-17T10:54:59.114Z,5.90
2022-08-17T10:57:32.239Z,6.45
2022-08-17T11:00:00.004Z,4.75
2022-08-17T11:02:31.625Z,9.23
2022-08-17T11:05:14.075Z,9.27
2022-08-17T11:07:47.744Z,7.35
2022-08-17T11:10:25.126Z,7.45
2022-08-17T11:13:05.689Z,10.18
2022-08-17T11:16:08.277Z,5.40
2022-08-17T11:19:15.580Z,5.75
2022-08-17T11:22:31.267Z,7.78
2022-08-17T11:25:17.985Z,6.57
2022-08-17T11:27:47.177Z,4.70
2022-08-17T11:30:15.620Z,8.43
2022-08-17T11:32:47.773Z,7.13
2022-08-17T11:35:22.134Z,7.57
2022-08-17T11:38:14.073Z,5.75
2022-08-17T11:41:02.365Z,8.90
2022-08-17T11:43:42.930Z,6.93
2022-08-17T11:46:16.059Z,8.90
2022-08-17T11:49:11.371Z,8.57
2022-08-17T11:52:01.022Z,7.13
2022-08-17T11:57:25.367Z,5.82
2022-08-17T11:59:59.094Z,7.28
2022-08-17T12:02:35.398Z,6.32
2022-08-17T12:05:14.371Z,7.05
2022-08-17T12:08:08.554Z,4.90
2022-08-17T12:10:42.060Z,5.00
2022-08-17T12:13:14.906Z,5.90
2022-08-17T12:15:48.732Z,8.20
2022-08-17T12:18:21.278Z,6.78
2022-08-17T12:21:00.288Z,6.00
2022-08-17T12:23:44.136Z,7.80
2022-08-17T12:26:19.432Z,7.78
2022-08-17T12:28:51.864Z,6.75
2022-08-17T12:31:25.820Z,6.93
2022-08-17T12:33:53.166Z,6.78
2022-08-17T12:36:25.335Z,5.57
2022-08-17T12:39:14.630Z,7.95
2022-08-17T12:41:44.012Z,6.82
2022-08-17T12:44:12.190Z,5.03
2022-08-17T12:46:49.005Z,7.07
2022-08-17T12:49:33.151Z,6.82
2022-08-17T12:52:27.087Z,5.25
2022-08-17T12:55:21.281Z,8.13
2022-08-17T12:57:55.799Z,6.68
2022-08-17T13:00:34.979Z,7.45
2022-08-17T13:03:06.000Z,8.75
2022-08-17T13:05:38.298Z,9.20
2022-08-17T13:08:20.267Z,8.10
2022-08-17T13:10:55.711Z,7.82
2022-08-17T13:13:26.702Z,5.65
2022-08-17T13:15:59.135Z,5.70
2022-08-17T13:18:49.029Z,6.38
2022-08-17T13:21:19.692Z,7.20
2022-08-17T13:24:03.639Z,8.95
2022-08-17T13:26:38.457Z,6.85
2022-08-17T13:29:08.434Z,12.15
2022-08-17T13:31:52.691Z,8.70
2022-08-17T13:34:24.086Z,11.10
2022-08-17T13:37:19.888Z,12.53
2022-08-17T13:39:50.669Z,13.02
2022-08-17T13:42:51.880Z,9.20
2022-08-17T13:45:35.223Z,13.50
2022-08-17T13:48:07.623Z,11.63
2022-08-17T13:50:55.052Z,8.68
2022-08-17T13:53:28.117Z,11.25
2022-08-17T13:56:07.406Z,6.78
2022-08-17T13:59:00.349Z,9.00
2022-08-17T14:01:42.489Z,14.32
2022-08-17T14:04:18.235Z,11.98
2022-08-17T14:07:04.164Z,10.60
2022-08-17T14:09:37.585Z,14.65
2022-08-17T14:12:07.163Z,13.60
2022-08-17T14:14:34.632Z,7.30
2022-08-17T14:17:02.148Z,13.52
2022-08-17T14:19:29.586Z,21.10
2022-08-17T14:21:58.905Z,20.75
2022-08-17T14:24:31.386Z,15.60
2022-08-17T14:26:59.731Z,11.98
2022-08-17T14:29:28.945Z,10.38
2022-08-17T14:31:56.754Z,8.10
2022-08-17T14:34:24.517Z,9.13
2022-08-17T14:36:52.075Z,9.48
2022-08-17T14:39:19.519Z,11.68
2022-08-17T14:41:47.114Z,7.95
2022-08-17T14:44:14.577Z,11.07
2022-08-17T14:46:43.233Z,11.35
2022-08-17T14:49:11.828Z,11.02
2022-08-17T14:51:44.417Z,9.20
2022-08-17T14:54:29.434Z,8.23
2022-08-17T14:57:24.880Z,8.30
2022-08-17T14:59:50.699Z,8.88
2022-08-17T15:02:23.009Z,7.57
2022-08-17T15:05:01.868Z,12.43
2022-08-17T15:07:30.542Z,8.70
2022-08-17T15:10:02.035Z,9.13
2022-08-17T15:12:33.075Z,6.78
2022-08-17T15:17:44.781Z,9.82
2022-08-17T15:20:19.227Z,9.13
2022-08-17T15:22:49.437Z,9.35
2022-08-17T15:25:17.321Z,13.93
2022-08-17T15:27:45.004Z,10.35
2022-08-17T15:30:12.856Z,12.20
2022-08-17T15:32:41.463Z,13.57
2022-08-17T15:35:18.870Z,16.23
2022-08-17T15:37:53.857Z,12.52
2022-08-17T15:40:21.166Z,14.50
2022-08-17T15:42:48.641Z,17.00
2022-08-17T15:45:17.017Z,18.33
2022-08-17T15:47:44.843Z,20.25
2022-08-17T15:50:12.468Z,17.40
2022-08-17T15:52:40.726Z,28.63
2022-08-17T15:55:13.209Z,24.13
2022-08-17T15:57:40.871Z,21.10
2022-08-17T16:00:09.271Z,28.13
2022-08-17T16:03:14.352Z,22.70
2022-08-17T16:05:25.100Z,25.20
2022-08-17T16:07:53.161Z,22.38
2022-08-17T16:10:21.147Z,16.55
2022-08-17T16:12:49.442Z,17.08
2022-08-17T16:15:17.685Z,17.25
2022-08-17T16:17:45.626Z,16.23
2022-08-17T16:20:20.108Z,19.92
2022-08-17T16:22:49.093Z,22.27
2022-08-17T16:25:21.629Z,24.58
2022-08-17T16:27:53.900Z,20.55
2022-08-17T16:30:24.144Z,19.33
2022-08-17T16:32:52.909Z,21.83
2022-08-17T16:35:22.683Z,21.88
2022-08-17T16:37:49.956Z,24.75
2022-08-17T16:40:17.456Z,23.52
2022-08-17T16:42:45.555Z,22.42
2022-08-17T16:45:20.932Z,19.45
2022-08-17T16:47:50.197Z,21.83
2022-08-17T16:50:19.031Z,22.25
2022-08-17T16:52:48.504Z,21.77
2022-08-17T16:55:18.688Z,19.75
2022-08-17T16:57:50.056Z,23.55
2022-08-17T17:00:18.030Z,19.00
2022-08-17T17:02:47.358Z,25.40
2022-08-17T17:05:24.756Z,19.77
2022-08-17T17:08:07.740Z,21.65
2022-08-17T17:10:52.750Z,18.48
2022-08-17T17:13:48.058Z,21.73
2022-08-17T17:16:40.756Z,20.10
2022-08-17T17:19:18.143Z,20.48
2022-08-17T17:22:22.866Z,19.30
2022-08-17T17:25:25.435Z,19.25
2022-08-17T17:28:14.295Z,19.88
2022-08-17T17:30:49.486Z,21.73
2022-08-17T17:33:22.673Z,20.65
2022-08-17T17:35:55.839Z,20.63
2022-08-17T17:38:29.148Z,19.73
2022-08-17T17:41:02.999Z,11.90
2022-08-17T17:43:40.636Z,13.50
2022-08-17T17:46:29.288Z,13.07
2022-08-17T17:48:57.527Z,10.52
2022-08-17T17:52:11.070Z,12.38
2022-08-17T17:55:06.025Z,11.05
2022-08-17T17:58:02.608Z,11.30
2022-08-17T18:01:14.640Z,10.38
2022-08-17T18:03:44.997Z,11.30
2022-08-17T18:06:45.361Z,12.43
2022-08-17T18:11:59.922Z,11.07
2022-08-17T18:14:30.128Z,10.48
2022-08-17T18:16:58.319Z,10.73
2022-08-17T18:19:26.865Z,15.88
2022-08-17T18:22:20.614Z,10.60
2022-08-17T18:24:49.698Z,10.38
2022-08-17T18:27:32.183Z,10.82
2022-08-17T18:30:03.430Z,10.65
2022-08-17T18:32:40.044Z,13.70
2022-08-17T18:35:10.393Z,13.52
2022-08-17T18:37:47.582Z,14.73
2022-08-17T18:40:18.436Z,18.92
2022-08-17T18:43:06.189Z,17.25
2022-08-17T18:45:46.488Z,16.10
2022-08-17T18:48:21.400Z,12.77
2022-08-17T18:50:53.324Z,12.95
2022-08-17T18:53:31.726Z,12.15
2022-08-17T18:56:31.573Z,11.05
2022-08-17T18:59:02.088Z,14.52
2022-08-17T19:01:53.533Z,13.52
2022-08-17T19:04:35.159Z,9.10
2022-08-17T19:07:08.896Z,12.55
2022-08-17T19:09:45.468Z,8.65
2022-08-17T19:12:26.908Z,8.00
2022-08-17T19:14:56.006Z,9.65
2022-08-17T19:17:50.116Z,10.38
2022-08-17T19:20:20.195Z,12.40
2022-08-17T19:23:13.109Z,10.50
2022-08-17T19:25:45.388Z,10.48
2022-08-17T19:28:32.756Z,11.90
2022-08-17T19:31:04.905Z,14.07
2022-08-17T19:33:32.368Z,10.35
2022-08-17T19:36:10.368Z,13.43
2022-08-17T19:38:45.967Z,12.18
2022-08-17T19:41:21.904Z,9.57
2022-08-17T19:43:55.265Z,16.05
2022-08-17T19:47:10.476Z,13.13
2022-08-17T19:49:55.750Z,13.43
2022-08-17T19:52:42.433Z,17.30
2022-08-17T19:55:22.363Z,11.80
2022-08-17T19:58:04.889Z,14.38
2022-08-17T20:00:34.099Z,15.10
2022-08-17T20:03:25.553Z,15.25
2022-08-17T20:06:12.175Z,15.00
2022-08-17T20:08:57.071Z,13.88
2022-08-17T20:11:49.470Z,16.73
2022-08-17T20:14:20.660Z,16.85
2022-08-17T20:19:28.015Z,14.77
2022-08-17T20:22:05.992Z,15.02
2022-08-17T20:24:42.169Z,16.80
2022-08-17T20:27:12.736Z,16.65
2022-08-17T20:29:55.238Z,17.42
2022-08-17T20:32:48.706Z,23.05
2022-08-17T20:35:26.221Z,20.33
2022-08-17T20:38:02.012Z,16.75
2022-08-17T20:40:38.488Z,17.88
2022-08-17T20:43:34.914Z,15.80
2022-08-17T20:46:17.425Z,17.40
2022-08-17T20:48:46.700Z,14.32
2022-08-17T20:51:17.345Z,16.17
2022-08-17T20:53:47.626Z,19.83
2022-08-17T20:56:49.188Z,14.40
2022-08-17T20:59:25.960Z,15.05
2022-08-17T21:02:08.916Z,15.63
2022-08-17T21:04:59.908Z,16.33
2022-08-17T21:07:42.771Z,16.92
2022-08-17T21:10:24.010Z,18.20
2022-08-17T21:12:54.430Z,17.35
2022-08-17T21:15:32.774Z,17.27
2022-08-17T21:18:23.357Z,14.93
2022-08-17T21:21:17.435Z,15.80
2022-08-17T21:24:03.327Z,20.77
2022-08-17T21:27:00.237Z,23.33
2022-08-17T21:29:32.562Z,18.83
2022-08-17T21:32:05.219Z,23.50
2022-08-17T21:34:33.122Z,24.80
2022-08-17T21:37:18.929Z,29.67
2022-08-17T21:39:54.271Z,26.92
2022-08-17T21:42:26.553Z,30.83
2022-08-17T21:44:54.542Z,29.02
2022-08-17T21:47:27.175Z,32.38
2022-08-17T21:49:55.548Z,29.92
2022-08-17T21:52:24.209Z,33.75
2022-08-17T21:55:02.508Z,30.52
2022-08-17T21:57:30.026Z,25.80
2022-08-17T21:59:58.955Z,24.02
2022-08-17T22:02:51.339Z,26.10
2022-08-17T22:05:29.184Z,21.83
2022-08-17T22:08:07.760Z,24.15
2022-08-17T22:10:45.878Z,23.88
2022-08-17T22:13:19.788Z,26.63
2022-08-17T22:15:49.257Z,22.60
2022-08-17T22:18:20.080Z,24.65
2022-08-17T22:20:51.956Z,21.73
2022-08-17T22:23:46.253Z,23.15
2022-08-17T22:26:15.653Z,16.80
2022-08-17T22:28:45.814Z,18.23
2022-08-17T22:31:18.320Z,14.18
2022-08-17T22:34:07.659Z,17.70
2022-08-17T22:36:36.207Z,15.98
2022-08-17T22:39:09.666Z,14.00
2022-08-17T22:41:37.998Z,15.38
2022-08-17T22:44:15.728Z,28.70
2022-08-17T22:47:11.299Z,14.77
2022-08-17T22:49:54.645Z,17.30
2022-08-17T22:52:29.231Z,18.25
2022-08-17T22:55:35.296Z,16.98
2022-08-17T22:58:27.718Z,14.60
2022-08-17T23:00:55.802Z,16.33
2022-08-17T23:03:24.857Z,16.27
2022-08-17T23:06:07.072Z,15.73
2022-08-17T23:08:39.534Z,17.45
2022-08-17T23:11:06.984Z,13.18
2022-08-17T23:13:34.386Z,16.95
2022-08-17T23:16:03.341Z,13.30
2022-08-17T23:18:30.742Z,19.85
2022-08-17T23:20:58.002Z,17.00
2022-08-17T23:23:26.553Z,15.65
2022-08-17T23:25:54.768Z,13.40
2022-08-17T23:28:22.201Z,13.93
2022-08-17T23:30:49.460Z,14.02
2022-08-17T23:33:25.652Z,11.65
2022-08-17T23:35:54.095Z,14.80
2022-08-17T23:38:22.434Z,12.05
2022-08-17T23:40:49.679Z,12.35
2022-08-17T23:43:25.520Z,10.88
2022-08-17T23:45:57.590Z,10.15
2022-08-17T23:48:35.115Z,13.95
2022-08-17T23:51:09.116Z,11.20
2022-08-17T23:53:36.782Z,16.45
2022-08-17T23:56:10.375Z,12.55
2022-08-17T23:58:40.442Z,13.23
